createdAt,value
2022-11-19T00:01:27.764Z,5.30
2022-11-19T00:04:29.156Z,5.28
2022-11-19T00:07:30.745Z,5.27
2022-11-19T00:10:33.509Z,5.32
2022-11-19T00:13:34.894Z,5.30
2022-11-19T00:16:36.229Z,5.30
2022-11-19T00:19:37.567Z,5.31
2022-11-19T00:22:38.981Z,5.32
2022-11-19T00:25:42.077Z,5.35
2022-11-19T00:28:43.433Z,5.30
2022-11-19T00:31:44.799Z,5.32
2022-11-19T00:34:46.139Z,5.32
2022-11-19T00:37:47.462Z,5.32
2022-11-19T00:40:48.769Z,5.31
2022-11-19T00:43:50.474Z,5.35
2022-11-19T00:46:51.855Z,5.33
2022-11-19T00:49:53.226Z,5.30
2022-11-19T00:52:54.627Z,5.32
2022-11-19T00:55:55.970Z,5.26
2022-11-19T00:58:57.674Z,5.28
2022-11-19T01:01:59.049Z,5.25
2022-11-19T01:05:00.419Z,5.27
2022-11-19T01:08:01.805Z,5.27
2022-11-19T01:11:07.237Z,5.27
2022-11-19T01:14:08.642Z,5.24
2022-11-19T01:17:09.980Z,5.24
2022-11-19T01:20:11.496Z,5.22
2022-11-19T01:23:12.898Z,5.22
2022-11-19T01:26:14.315Z,5.20
2022-11-19T01:29:15.737Z,5.24
2022-11-19T01:32:17.200Z,5.23
2022-11-19T01:35:18.533Z,5.22
2022-11-19T01:38:19.878Z,5.20
2022-11-19T01:41:22.033Z,5.23
2022-11-19T01:44:42.428Z,5.25
2022-11-19T01:47:43.765Z,5.30
2022-11-19T01:50:47.568Z,5.30
2022-11-19T01:53:49.164Z,5.28
2022-11-19T01:56:50.507Z,5.27
2022-11-19T01:59:51.932Z,5.32
2022-11-19T02:02:53.365Z,5.35
2022-11-19T02:05:54.686Z,5.36
2022-11-19T02:08:56.053Z,5.38
2022-11-19T02:12:16.246Z,5.37
2022-11-19T02:15:32.363Z,5.35
2022-11-19T02:18:33.788Z,5.36
2022-11-19T02:21:39.075Z,5.33
2022-11-19T02:24:56.575Z,5.25
2022-11-19T02:28:16.633Z,5.25
2022-11-19T02:31:21.609Z,5.25
2022-11-19T02:34:30.434Z,5.21
2022-11-19T02:37:38.957Z,5.22
2022-11-19T02:40:45.227Z,5.23
2022-11-19T02:43:46.565Z,5.23
2022-11-19T02:46:48.935Z,5.17
2022-11-19T02:49:51.272Z,5.21
2022-11-19T02:52:52.648Z,5.21
2022-11-19T02:56:12.291Z,5.23
2022-11-19T02:59:32.450Z,5.28
2022-11-19T03:02:54.149Z,5.30
2022-11-19T03:05:59.847Z,5.33
2022-11-19T03:09:01.182Z,5.33
2022-11-19T03:12:04.764Z,5.34
2022-11-19T03:15:27.288Z,5.32
2022-11-19T03:18:31.624Z,5.30
2022-11-19T03:21:39.629Z,5.31
2022-11-19T03:24:41.991Z,5.32
2022-11-19T03:27:47.209Z,5.27
2022-11-19T03:30:48.586Z,5.31
2022-11-19T03:33:50.584Z,5.33
2022-11-19T03:36:52.497Z,5.23
2022-11-19T03:39:53.872Z,5.16
2022-11-19T03:42:55.491Z,5.29
2022-11-19T03:45:57.256Z,5.31
2022-11-19T03:48:58.638Z,5.30
2022-11-19T03:52:05.168Z,5.31
2022-11-19T03:55:06.617Z,5.30
2022-11-19T03:58:07.945Z,5.24
2022-11-19T04:01:09.460Z,5.22
2022-11-19T04:04:29.489Z,5.26
2022-11-19T04:07:30.890Z,5.30
2022-11-19T04:10:32.241Z,5.26
2022-11-19T04:13:33.595Z,5.23
2022-11-19T04:16:35.017Z,5.21
2022-11-19T04:19:36.368Z,5.21
2022-11-19T04:22:37.753Z,5.27
2022-11-19T04:25:40.403Z,5.27
2022-11-19T04:28:41.924Z,5.28
2022-11-19T04:31:43.293Z,5.25
2022-11-19T04:34:44.616Z,5.28
2022-11-19T04:37:45.963Z,5.30
2022-11-19T04:40:47.299Z,5.26
2022-11-19T04:43:48.683Z,5.28
2022-11-19T04:46:50.034Z,5.28
2022-11-19T04:49:51.357Z,5.30
2022-11-19T04:52:52.794Z,5.30
2022-11-19T04:55:54.292Z,5.31
2022-11-19T04:58:55.657Z,5.28
2022-11-19T05:01:57.020Z,5.28
2022-11-19T05:04:58.532Z,5.27
2022-11-19T05:07:59.878Z,5.27
2022-11-19T05:11:01.367Z,5.28
2022-11-19T05:14:02.764Z,5.31
2022-11-19T05:17:04.531Z,5.27
2022-11-19T05:20:06.180Z,5.29
2022-11-19T05:23:07.513Z,5.30
2022-11-19T05:26:08.990Z,5.33
2022-11-19T05:29:10.343Z,5.34
2022-11-19T05:32:11.659Z,5.29
2022-11-19T05:35:13.011Z,5.30
2022-11-19T05:38:14.335Z,5.31
2022-11-19T05:41:15.688Z,5.32
2022-11-19T05:44:17.313Z,5.26
2022-11-19T05:47:18.658Z,5.21
2022-11-19T05:50:20.003Z,5.22
2022-11-19T05:53:21.386Z,5.21
2022-11-19T05:56:22.703Z,5.25
2022-11-19T05:59:24.294Z,5.24
2022-11-19T06:02:25.833Z,5.25
2022-11-19T06:05:27.186Z,5.25
2022-11-19T06:08:28.583Z,5.27
2022-11-19T06:11:47.964Z,5.27
2022-11-19T06:14:49.315Z,5.22
2022-11-19T06:17:50.782Z,5.21
2022-11-19T06:20:52.534Z,5.18
2022-11-19T06:23:53.884Z,5.15
2022-11-19T06:26:55.207Z,5.15
2022-11-19T06:29:56.601Z,5.15
2022-11-19T06:32:57.960Z,5.14
2022-11-19T06:35:59.269Z,5.10
2022-11-19T06:39:00.595Z,5.09
2022-11-19T06:42:20.785Z,5.07
2022-11-19T06:45:22.116Z,5.10
2022-11-19T06:48:23.521Z,5.06
2022-11-19T06:51:24.839Z,5.05
2022-11-19T06:54:26.231Z,5.13
2022-11-19T06:57:27.551Z,5.16
2022-11-19T07:00:28.926Z,5.15
2022-11-19T07:03:30.329Z,5.17
2022-11-19T07:06:31.675Z,5.18
2022-11-19T07:09:33.093Z,5.16
2022-11-19T07:12:34.557Z,5.13
2022-11-19T07:15:35.994Z,5.18
2022-11-19T07:18:37.467Z,5.21
2022-11-19T07:21:38.827Z,5.24
2022-11-19T07:24:40.285Z,5.24
2022-11-19T07:27:43.371Z,5.22
2022-11-19T07:30:44.734Z,5.23
2022-11-19T07:33:46.091Z,5.28
2022-11-19T07:36:47.633Z,5.30
2022-11-19T07:39:48.954Z,5.30
2022-11-19T07:42:50.474Z,5.28
2022-11-19T07:45:51.812Z,5.26
2022-11-19T07:48:54.248Z,5.25
2022-11-19T07:51:55.558Z,5.32
2022-11-19T07:54:56.897Z,5.32
2022-11-19T07:57:58.376Z,5.21
2022-11-19T08:01:06.757Z,5.27
2022-11-19T08:04:08.091Z,5.27
2022-11-19T08:07:09.544Z,5.30
2022-11-19T08:10:10.922Z,5.25
2022-11-19T08:13:12.305Z,5.31
2022-11-19T08:16:38.056Z,5.28
2022-11-19T08:19:39.417Z,5.21
2022-11-19T08:22:42.093Z,5.21
2022-11-19T08:25:44.201Z,5.26
2022-11-19T08:28:45.584Z,5.30
2022-11-19T08:31:47.304Z,5.25
2022-11-19T08:34:48.662Z,5.27
2022-11-19T08:37:50.015Z,5.28
2022-11-19T08:41:14.280Z,5.26
2022-11-19T08:44:15.739Z,5.24
2022-11-19T08:47:17.118Z,5.24
2022-11-19T08:50:18.505Z,5.32
2022-11-19T08:53:19.847Z,5.38
2022-11-19T08:56:21.247Z,5.46
2022-11-19T08:59:22.859Z,5.53
2022-11-19T09:02:24.267Z,5.58
2022-11-19T09:05:25.774Z,5.79
2022-11-19T09:08:27.195Z,5.92
2022-11-19T09:11:28.551Z,6.01
2022-11-19T09:14:29.889Z,6.15
2022-11-19T09:17:31.352Z,6.24
2022-11-19T09:20:32.683Z,6.46
2022-11-19T09:23:34.043Z,6.63
2022-11-19T09:26:35.410Z,6.89
2022-11-19T09:29:36.752Z,6.99
2022-11-19T09:32:38.260Z,7.07
2022-11-19T09:35:39.567Z,6.90
2022-11-19T09:38:40.996Z,6.89
2022-11-19T09:42:02.568Z,6.79
2022-11-19T09:45:09.826Z,6.77
2022-11-19T09:48:23.340Z,6.74
2022-11-19T09:51:29.073Z,6.76
2022-11-19T09:54:30.405Z,6.90
2022-11-19T09:57:46.284Z,6.78
2022-11-19T10:00:47.678Z,6.81
2022-11-19T10:03:49.590Z,6.67
2022-11-19T10:07:00.498Z,6.55
2022-11-19T10:10:14.071Z,6.46
2022-11-19T10:13:27.669Z,6.38
2022-11-19T10:16:34.997Z,6.37
2022-11-19T10:19:45.388Z,6.36
2022-11-19T10:22:54.218Z,6.38
2022-11-19T10:26:00.917Z,6.44
2022-11-19T10:29:02.414Z,6.45
2022-11-19T10:32:22.705Z,6.53
2022-11-19T10:35:25.813Z,6.48
2022-11-19T10:38:28.627Z,6.56
2022-11-19T10:41:29.910Z,6.52
2022-11-19T10:44:41.809Z,6.52
2022-11-19T10:47:48.125Z,6.60
2022-11-19T10:50:49.675Z,6.47
2022-11-19T10:53:51.093Z,6.55
2022-11-19T10:56:52.446Z,6.54
2022-11-19T10:59:53.791Z,6.56
2022-11-19T11:02:58.593Z,6.57
2022-11-19T11:06:02.072Z,6.53
2022-11-19T11:09:03.400Z,6.52
2022-11-19T11:12:36.583Z,6.57
2022-11-19T11:15:44.220Z,6.51
2022-11-19T11:18:45.718Z,6.42
2022-11-19T11:21:47.132Z,6.50
2022-11-19T11:24:48.800Z,6.50
2022-11-19T11:28:16.597Z,6.57
2022-11-19T11:31:17.951Z,6.50
2022-11-19T11:34:25.261Z,6.60
2022-11-19T11:37:26.596Z,6.64
2022-11-19T11:40:28.008Z,6.64
2022-11-19T11:43:29.381Z,6.67
2022-11-19T11:46:34.167Z,6.67
2022-11-19T11:49:42.475Z,6.59
2022-11-19T11:52:44.243Z,6.63
2022-11-19T11:55:45.592Z,6.69
2022-11-19T11:58:46.914Z,6.65
2022-11-19T12:01:54.971Z,6.52
2022-11-19T12:04:56.993Z,6.62
2022-11-19T12:08:03.343Z,6.58
2022-11-19T12:11:10.602Z,6.68
2022-11-19T12:14:11.951Z,6.72
2022-11-19T12:17:18.756Z,6.73
2022-11-19T12:20:21.685Z,6.82
2022-11-19T12:23:22.961Z,6.78
2022-11-19T12:26:24.324Z,6.91
2022-11-19T12:29:40.981Z,6.78
2022-11-19T12:32:51.411Z,6.67
2022-11-19T12:36:06.241Z,6.88
2022-11-19T12:39:26.648Z,6.85
2022-11-19T12:42:31.609Z,6.93
2022-11-19T12:45:45.703Z,6.98
2022-11-19T12:48:47.033Z,7.11
2022-11-19T12:51:54.976Z,7.08
2022-11-19T12:55:19.662Z,7.25
2022-11-19T12:58:32.944Z,7.17
2022-11-19T13:01:35.471Z,7.17
2022-11-19T13:04:38.123Z,7.24
2022-11-19T13:07:51.624Z,7.14
2022-11-19T13:10:56.855Z,7.42
2022-11-19T13:13:58.810Z,7.47
2022-11-19T13:17:00.124Z,7.51
2022-11-19T13:20:11.691Z,7.49
2022-11-19T13:23:14.861Z,7.42
2022-11-19T13:26:36.477Z,7.33
2022-11-19T13:29:45.146Z,7.14
2022-11-19T13:32:48.665Z,7.06
2022-11-19T13:35:58.250Z,6.88
2022-11-19T13:39:01.287Z,6.89
2022-11-19T13:42:21.343Z,6.87
2022-11-19T13:45:22.673Z,6.92
2022-11-19T13:48:27.877Z,6.87
2022-11-19T13:51:30.950Z,6.78
2022-11-19T13:54:39.025Z,6.85
2022-11-19T13:57:41.374Z,6.84
2022-11-19T14:00:42.974Z,6.77
2022-11-19T14:03:56.528Z,6.76
2022-11-19T14:07:03.861Z,6.73
2022-11-19T14:10:16.361Z,6.73
2022-11-19T14:13:20.734Z,6.72
2022-11-19T14:16:47.528Z,6.66
2022-11-19T14:20:08.336Z,6.63
2022-11-19T14:23:48.363Z,6.65
2022-11-19T14:26:52.665Z,6.57
2022-11-19T14:29:55.381Z,6.56
2022-11-19T14:32:56.682Z,6.57
2022-11-19T14:35:57.993Z,6.55
2022-11-19T14:39:00.013Z,6.57
2022-11-19T14:42:17.287Z,6.47
2022-11-19T14:45:18.972Z,6.57
2022-11-19T14:48:20.296Z,6.55
2022-11-19T14:51:34.951Z,6.53
2022-11-19T14:54:38.115Z,6.57
2022-11-19T14:57:39.440Z,6.59
2022-11-19T15:00:41.010Z,6.58
2022-11-19T15:03:45.515Z,6.56
2022-11-19T15:06:46.876Z,6.54
2022-11-19T15:10:07.094Z,6.53
2022-11-19T15:13:18.831Z,6.51
2022-11-19T15:16:21.013Z,6.48
2022-11-19T15:19:31.465Z,6.50
2022-11-19T15:22:39.356Z,6.42
2022-11-19T15:25:59.594Z,6.34
2022-11-19T15:29:04.623Z,6.26
2022-11-19T15:32:15.007Z,6.22
2022-11-19T15:35:16.326Z,6.16
2022-11-19T15:38:20.371Z,6.10
2022-11-19T15:41:22.618Z,6.07
2022-11-19T15:44:23.952Z,6.04
2022-11-19T15:47:33.696Z,5.93
2022-11-19T15:50:35.050Z,5.85
2022-11-19T15:53:36.377Z,5.79
2022-11-19T15:56:38.381Z,5.73
2022-11-19T15:59:39.770Z,5.76
2022-11-19T16:02:41.644Z,5.74
2022-11-19T16:05:47.654Z,5.65
2022-11-19T16:08:51.833Z,5.58
2022-11-19T16:12:11.963Z,5.63
2022-11-19T16:15:36.204Z,5.64
2022-11-19T16:18:47.411Z,5.64
2022-11-19T16:21:58.538Z,5.59
2022-11-19T16:25:02.815Z,5.53
2022-11-19T16:28:07.230Z,5.59
2022-11-19T16:31:08.561Z,5.56
2022-11-19T16:34:15.422Z,5.53
2022-11-19T16:37:17.574Z,5.54
2022-11-19T16:40:18.995Z,5.51
2022-11-19T16:43:20.367Z,5.51
2022-11-19T16:46:21.764Z,5.55
2022-11-19T16:49:30.138Z,5.59
2022-11-19T16:52:38.176Z,5.59
2022-11-19T16:55:40.378Z,5.58
2022-11-19T16:58:41.797Z,5.59
2022-11-19T17:01:43.238Z,5.59
2022-11-19T17:04:49.335Z,5.56
2022-11-19T17:07:51.499Z,5.49
2022-11-19T17:11:31.666Z,5.47
2022-11-19T17:14:35.846Z,5.51
2022-11-19T17:17:40.331Z,5.49
2022-11-19T17:20:45.405Z,5.51
2022-11-19T17:23:47.034Z,5.48
2022-11-19T17:26:48.984Z,5.48
2022-11-19T17:29:50.301Z,5.48
2022-11-19T17:32:56.328Z,5.45
2022-11-19T17:35:57.665Z,5.46
2022-11-19T17:38:59.029Z,5.44
2022-11-19T17:42:19.133Z,5.42
2022-11-19T17:45:20.500Z,5.46
2022-11-19T17:48:22.972Z,5.43
2022-11-19T17:51:24.766Z,5.44
2022-11-19T17:54:26.148Z,5.40
2022-11-19T17:57:27.470Z,5.40
2022-11-19T18:00:28.873Z,5.37
2022-11-19T18:03:30.236Z,5.33
2022-11-19T18:06:31.620Z,5.36
2022-11-19T18:09:35.074Z,5.39
2022-11-19T18:12:36.606Z,5.39
2022-11-19T18:15:38.374Z,5.39
2022-11-19T18:18:39.753Z,5.42
2022-11-19T18:21:41.395Z,5.44
2022-11-19T18:24:42.737Z,5.46
2022-11-19T18:27:44.329Z,5.46
2022-11-19T18:30:45.785Z,5.46
2022-11-19T18:33:48.035Z,5.44
2022-11-19T18:36:49.464Z,5.44
2022-11-19T18:39:52.713Z,5.39
2022-11-19T18:43:12.743Z,5.32
2022-11-19T18:46:14.085Z,5.28
2022-11-19T18:49:15.423Z,5.28
2022-11-19T18:52:16.766Z,5.32
2022-11-19T18:55:18.161Z,5.33
2022-11-19T18:58:19.509Z,5.34
2022-11-19T19:01:23.753Z,5.34
2022-11-19T19:04:25.145Z,5.33
2022-11-19T19:07:26.549Z,5.23
2022-11-19T19:10:27.989Z,5.22
2022-11-19T19:13:29.538Z,5.09
2022-11-19T19:16:30.936Z,5.16
2022-11-19T19:19:32.264Z,5.16
2022-11-19T19:22:33.668Z,5.14
2022-11-19T19:25:35.014Z,5.22
2022-11-19T19:28:36.375Z,5.22
2022-11-19T19:31:38.177Z,5.20
2022-11-19T19:34:39.547Z,5.22
2022-11-19T19:37:42.390Z,5.25
2022-11-19T19:40:43.725Z,5.26
2022-11-19T19:43:45.157Z,5.22
2022-11-19T19:46:49.584Z,5.21
2022-11-19T19:49:51.014Z,5.24
2022-11-19T19:52:52.356Z,5.20
2022-11-19T19:56:01.011Z,5.24
2022-11-19T19:59:02.415Z,5.25
2022-11-19T20:02:03.894Z,5.27
2022-11-19T20:05:05.362Z,5.27
2022-11-19T20:08:06.724Z,5.31
2022-11-19T20:11:08.936Z,5.30
2022-11-19T20:14:10.488Z,5.28
2022-11-19T20:17:11.808Z,5.23
2022-11-19T20:20:13.203Z,5.24
2022-11-19T20:23:14.565Z,5.30
2022-11-19T20:26:16.784Z,5.25
2022-11-19T20:29:20.358Z,5.24
2022-11-19T20:32:22.013Z,5.18
2022-11-19T20:35:23.795Z,5.21
2022-11-19T20:38:25.195Z,5.23
2022-11-19T20:41:45.723Z,5.23
2022-11-19T20:44:47.058Z,5.21
2022-11-19T20:47:48.395Z,5.21
2022-11-19T20:50:49.748Z,5.17
2022-11-19T20:53:51.145Z,5.13
2022-11-19T20:56:53.010Z,5.11
2022-11-19T20:59:54.402Z,5.08
2022-11-19T21:02:55.829Z,5.08
2022-11-19T21:05:58.246Z,5.12
2022-11-19T21:08:59.635Z,5.06
2022-11-19T21:12:00.978Z,5.06
2022-11-19T21:15:02.425Z,5.08
2022-11-19T21:18:03.799Z,5.05
2022-11-19T21:21:06.920Z,5.07
2022-11-19T21:24:08.322Z,5.01
2022-11-19T21:27:09.652Z,5.01
2022-11-19T21:30:11.201Z,4.99
2022-11-19T21:33:12.670Z,4.98
2022-11-19T21:36:14.136Z,4.93
2022-11-19T21:39:16.467Z,4.92
2022-11-19T21:42:17.942Z,4.95
2022-11-19T21:45:19.410Z,4.90
2022-11-19T21:48:24.166Z,4.92
2022-11-19T21:51:25.692Z,4.94
2022-11-19T21:54:27.056Z,4.94
2022-11-19T21:57:28.507Z,4.92
2022-11-19T22:00:30.018Z,4.88
2022-11-19T22:03:32.432Z,4.84
2022-11-19T22:06:33.759Z,4.79
2022-11-19T22:09:35.120Z,4.73
2022-11-19T22:12:36.446Z,4.73
2022-11-19T22:15:37.791Z,4.78
2022-11-19T22:18:39.147Z,4.83
2022-11-19T22:21:40.580Z,4.82
2022-11-19T22:24:41.902Z,4.85
2022-11-19T22:27:43.227Z,4.79
2022-11-19T22:30:44.582Z,4.79
2022-11-19T22:33:47.856Z,4.68
2022-11-19T22:36:49.732Z,4.69
2022-11-19T22:39:51.124Z,4.74
2022-11-19T22:42:52.442Z,4.77
2022-11-19T22:45:53.796Z,4.77
2022-11-19T22:48:55.156Z,4.74
2022-11-19T22:51:56.486Z,4.72
2022-11-19T22:54:57.818Z,4.65
2022-11-19T22:57:59.257Z,4.65
2022-11-19T23:01:00.798Z,4.67
2022-11-19T23:04:05.638Z,4.67
2022-11-19T23:07:07.489Z,4.64
2022-11-19T23:10:09.048Z,4.62
2022-11-19T23:13:31.952Z,4.60
2022-11-19T23:16:33.411Z,4.55
2022-11-19T23:19:36.356Z,4.52
2022-11-19T23:22:37.695Z,4.50
2022-11-19T23:25:39.093Z,4.50
2022-11-19T23:28:40.475Z,4.50
2022-11-19T23:31:41.833Z,4.41
2022-11-19T23:34:43.180Z,4.39
2022-11-19T23:37:44.551Z,4.44
2022-11-19T23:40:46.073Z,4.42
2022-11-19T23:43:47.891Z,4.39
2022-11-19T23:46:49.232Z,4.37
2022-11-19T23:49:50.613Z,4.41
2022-11-19T23:52:51.959Z,4.44
2022-11-19T23:55:53.297Z,4.41
2022-11-19T23:58:54.636Z,4.41
